KCKV

Outlaw Field Airport

Clarksville, Tennessee, USA
KCKV 161733Z 1618/1718 25004KT P6SM SCT025 FM162000 28007KT P6SM VCTS BKN050CB FM170000 29006KT P6SM SCT100 FM170900 31002KT 5SM BR SCT005 FM171300 01004KT P6SM SCT030
Issued Valid From Valid To
Jul-16 @ 17:33 UTC
(3 hours ago)
Jul-16 @ 18:00 UTC
(2 hours ago)
Jul-17 @ 18:00 UTC
(in 22 hours)
Expired Click to View Jul-16 @ 18:00 to Jul-16 @ 20:00
KCKV 161733Z 1618/1718 25004KT P6SM SCT025
Wind Visibility Clouds
250° at 4 knots Greater than 6 miles
  • Scattered at 2,500' AGL
From Jul-16 @ 20:00 to Jul-17 @ 00:00
FM162000 28007KT P6SM VCTS BKN050CB
Wind Visibility Clouds Conditions
280° at 7 knots Greater than 6 miles
  • Broken at 5,000' AGL
  • Area Thunderstorm
From Jul-17 @ 00:00 to Jul-17 @ 09:00
FM170000 29006KT P6SM SCT100
Wind Visibility Clouds
290° at 6 knots Greater than 6 miles
  • Scattered at 10,000' AGL
From Jul-17 @ 09:00 to Jul-17 @ 13:00
FM170900 31002KT 5SM BR SCT005
Wind Visibility Clouds Conditions
310° at 2 knots 5 miles
  • Scattered at 500' AGL
  • Mist
From Jul-17 @ 13:00 to Jul-17 @ 18:00
FM171300 01004KT P6SM SCT030
Wind Visibility Clouds
10° at 4 knots Greater than 6 miles
  • Scattered at 3,000' AGL
KCKV 161733Z 1618/1718 25004KT P6SM SCT025 FM162000 28007KT P6SM VCTS BKN050CB FM170000 29006KT P6SM SCT100 FM170900 31002KT 5SM BR SCT005 FM171300 01004KT P6SM SCT030
Issued Jul-16 @ 17:33 UTC
(3 hours ago)
Valid From Jul-16 @ 18:00 UTC
(2 hours ago)
Valid To Jul-17 @ 18:00 UTC
(in 22 hours)
Jul-16 @ 18:00 - Jul-16 @ 20:00
Wind Visibility
250° at 4 knots Greater than 6 miles
Clouds
  • Scattered at 2,500' AGL
From Jul-16 @ 20:00 - Jul-17 @ 00:00
Wind Visibility
280° at 7 knots Greater than 6 miles
Clouds
  • Broken at 5,000' AGL
Conditions
  • Area Thunderstorm
From Jul-17 @ 00:00 - Jul-17 @ 09:00
Wind Visibility
290° at 6 knots Greater than 6 miles
Clouds
  • Scattered at 10,000' AGL
From Jul-17 @ 09:00 - Jul-17 @ 13:00
Wind Visibility
310° at 2 knots 5 miles
Clouds
  • Scattered at 500' AGL
Conditions
  • Mist
From Jul-17 @ 13:00 - Jul-17 @ 18:00
Wind Visibility
10° at 4 knots Greater than 6 miles
Clouds
  • Scattered at 3,000' AGL